Calico Rock, Arkansas
Current Conditions -  °F | °C
As of 9:53 AM on Thursday 30 Oct 2014 (Local Time) from KBPK Reporting Station
Clear Clear  
Wind Chill: 51°   Ceiling: Unl
Heat Index: 51°   Visibility: 10mi
Dew Point: 39°   Wind: 6mph
Humidity: 63%   Direction: 150°SSE
Pressure: 30.13"   Gusts: NA
Location:  36.12°N, 92.14°W
Report Text: KBPK 301453Z AUTO 15005KT 10SM CLR 11/04 A3013 RMK AO2 SLP204 T01060039 56001
Loading
Personal Weather Stations






























Interactive Weather Map
Tropical Storm Tracking
New forecast layout! Learn more

10-Day Weather Forecast

Advertisements
Track Severe Weather on mobile